createdAt,value
2022-08-01T00:01:46.723Z,30.07
2022-08-01T00:04:15.211Z,30.05
2022-08-01T00:06:43.951Z,30.07
2022-08-01T00:09:12.581Z,30.05
2022-08-01T00:11:59.664Z,30.05
2022-08-01T00:14:32.464Z,30.06
2022-08-01T00:17:07.021Z,30.01
2022-08-01T00:19:35.991Z,29.99
2022-08-01T00:22:05.041Z,29.99
2022-08-01T00:24:33.852Z,29.97
2022-08-01T00:27:02.481Z,30.03
2022-08-01T00:30:11.915Z,30.01
2022-08-01T00:32:20.142Z,30.04
2022-08-01T00:34:49.743Z,30.01
2022-08-01T00:37:19.968Z,29.98
2022-08-01T00:39:48.527Z,29.97
2022-08-01T00:42:17.262Z,29.89
2022-08-01T00:44:45.962Z,29.95
2022-08-01T00:47:14.541Z,29.95
2022-08-01T00:49:43.342Z,29.97
2022-08-01T00:52:11.842Z,29.92
2022-08-01T00:54:40.453Z,29.93
2022-08-01T00:57:10.145Z,29.91
2022-08-01T00:59:41.295Z,29.87
2022-08-01T01:02:14.883Z,29.87
2022-08-01T01:04:44.901Z,29.80
2022-08-01T01:07:49.682Z,29.78
2022-08-01T01:10:43.252Z,29.78
2022-08-01T01:13:48.437Z,29.85
2022-08-01T01:16:20.718Z,29.86
2022-08-01T01:18:54.633Z,29.90
2022-08-01T01:21:24.938Z,29.90
2022-08-01T01:24:10.712Z,29.89
2022-08-01T01:27:03.812Z,29.87
2022-08-01T01:29:59.989Z,29.81
2022-08-01T01:32:43.622Z,29.84
2022-08-01T01:35:26.445Z,29.68
2022-08-01T01:38:24.451Z,29.76
2022-08-01T01:40:53.966Z,29.77
2022-08-01T01:43:22.584Z,29.84
2022-08-01T01:45:58.302Z,29.83
2022-08-01T01:48:26.803Z,29.83
2022-08-01T01:50:55.293Z,29.83
2022-08-01T01:53:24.336Z,29.79
2022-08-01T01:55:55.806Z,29.83
2022-08-01T01:58:24.735Z,29.82
2022-08-01T02:00:54.352Z,29.82
2022-08-01T02:03:23.192Z,29.77
2022-08-01T02:05:53.272Z,29.57
2022-08-01T02:08:21.843Z,29.53
2022-08-01T02:11:08.825Z,29.61
2022-08-01T02:13:38.738Z,29.71
2022-08-01T02:16:07.233Z,29.74
2022-08-01T02:18:35.772Z,29.77
2022-08-01T02:21:06.533Z,29.71
2022-08-01T02:23:36.141Z,29.62
2022-08-01T02:26:10.949Z,29.67
2022-08-01T02:28:58.933Z,29.65
2022-08-01T02:31:27.483Z,29.63
2022-08-01T02:34:03.550Z,29.62
2022-08-01T02:36:33.872Z,29.61
2022-08-01T02:39:38.156Z,29.59
2022-08-01T02:42:08.251Z,29.62
2022-08-01T02:44:40.519Z,29.64
2022-08-01T02:47:11.460Z,29.60
2022-08-01T02:49:53.294Z,29.63
2022-08-01T02:52:23.129Z,29.61
2022-08-01T02:54:53.519Z,29.62
2022-08-01T02:57:22.669Z,29.58
2022-08-01T02:59:54.969Z,29.57
2022-08-01T03:02:25.399Z,29.50
2022-08-01T03:04:57.135Z,29.27
2022-08-01T03:07:34.150Z,29.23
2022-08-01T03:10:04.074Z,29.35
2022-08-01T03:12:34.657Z,29.38
2022-08-01T03:15:04.451Z,29.34
2022-08-01T03:17:32.999Z,29.41
2022-08-01T03:20:01.789Z,29.23
2022-08-01T03:22:30.399Z,29.15
2022-08-01T03:24:59.073Z,29.13
2022-08-01T03:27:27.912Z,29.16
2022-08-01T03:29:57.632Z,29.18
2022-08-01T03:32:27.369Z,29.25
2022-08-01T03:34:56.240Z,29.30
2022-08-01T03:37:36.030Z,29.28
2022-08-01T03:40:43.011Z,29.16
2022-08-01T03:43:30.281Z,29.10
2022-08-01T03:46:06.272Z,29.14
2022-08-01T03:48:37.963Z,29.13
2022-08-01T03:51:06.822Z,29.12
2022-08-01T03:53:35.390Z,28.95
2022-08-01T03:56:04.319Z,28.86
2022-08-01T03:58:33.039Z,28.81
2022-08-01T04:01:01.686Z,28.85
2022-08-01T04:03:30.749Z,29.00
2022-08-01T04:05:59.730Z,29.01
2022-08-01T04:08:38.689Z,29.08
2022-08-01T04:11:08.939Z,29.13
2022-08-01T04:13:38.505Z,29.09
2022-08-01T04:16:07.338Z,28.93
2022-08-01T04:18:36.048Z,28.86
2022-08-01T04:21:04.589Z,28.76
2022-08-01T04:23:33.194Z,28.80
2022-08-01T04:26:05.361Z,28.70
2022-08-01T04:28:36.069Z,28.66
2022-08-01T04:31:06.710Z,28.63
2022-08-01T04:33:37.856Z,28.76
2022-08-01T04:36:07.251Z,28.65
2022-08-01T04:38:38.019Z,28.56
2022-08-01T04:41:09.363Z,28.66
2022-08-01T04:43:39.020Z,28.64
2022-08-01T04:46:08.760Z,28.62
2022-08-01T04:48:39.847Z,28.76
2022-08-01T04:51:16.891Z,28.71
2022-08-01T04:53:47.128Z,28.77
2022-08-01T04:56:16.119Z,28.83
2022-08-01T04:58:45.091Z,28.76
2022-08-01T05:01:13.726Z,28.66
2022-08-01T05:03:42.779Z,28.82
2022-08-01T05:06:11.430Z,28.88
2022-08-01T05:08:39.970Z,28.98
2022-08-01T05:11:08.851Z,28.88
2022-08-01T05:13:38.270Z,28.89
2022-08-01T05:16:08.570Z,28.91
2022-08-01T05:18:37.279Z,28.93
2022-08-01T05:21:05.920Z,28.95
2022-08-01T05:23:43.131Z,28.92
2022-08-01T05:26:15.691Z,28.97
2022-08-01T05:28:44.363Z,28.96
2022-08-01T05:31:12.870Z,28.93
2022-08-01T05:33:41.593Z,28.79
2022-08-01T05:36:11.130Z,28.69
2022-08-01T05:38:39.739Z,28.72
2022-08-01T05:41:08.540Z,28.79
2022-08-01T05:43:37.033Z,28.71
2022-08-01T05:46:05.549Z,28.75
2022-08-01T05:48:34.340Z,28.89
2022-08-01T05:51:03.129Z,28.91
2022-08-01T05:53:31.733Z,29.02
2022-08-01T05:56:00.563Z,28.98
2022-08-01T05:58:29.120Z,28.95
2022-08-01T06:00:57.764Z,29.03
2022-08-01T06:03:26.592Z,28.87
2022-08-01T06:05:55.128Z,28.89
2022-08-01T06:08:23.723Z,28.83
2022-08-01T06:10:52.456Z,28.79
2022-08-01T06:13:21.065Z,28.76
2022-08-01T06:15:49.848Z,28.85
2022-08-01T06:18:18.697Z,28.81
2022-08-01T06:20:47.285Z,28.83
2022-08-01T06:23:31.994Z,28.87
2022-08-01T06:26:02.093Z,28.69
2022-08-01T06:28:30.826Z,28.63
2022-08-01T06:31:00.575Z,28.64
2022-08-01T06:33:29.346Z,28.72
2022-08-01T06:35:58.025Z,28.57
2022-08-01T06:38:26.573Z,28.61
2022-08-01T06:40:55.349Z,28.73
2022-08-01T06:43:23.941Z,28.67
2022-08-01T06:45:52.472Z,28.68
2022-08-01T06:48:21.270Z,28.57
2022-08-01T06:50:49.849Z,28.46
2022-08-01T06:53:18.369Z,28.68
2022-08-01T06:55:48.349Z,28.73
2022-08-01T06:58:16.809Z,28.81
2022-08-01T07:00:45.265Z,28.65
2022-08-01T07:03:14.069Z,28.63
2022-08-01T07:05:42.549Z,28.70
2022-08-01T07:08:11.001Z,28.66
2022-08-01T07:10:39.768Z,28.52
2022-08-01T07:13:08.249Z,28.66
2022-08-01T07:15:36.828Z,28.78
2022-08-01T07:18:05.950Z,28.75
2022-08-01T07:20:41.250Z,28.79
2022-08-01T07:23:22.737Z,28.73
2022-08-01T07:26:01.164Z,28.73
2022-08-01T07:28:30.498Z,28.75
2022-08-01T07:30:58.957Z,28.76
2022-08-01T07:33:27.517Z,28.82
2022-08-01T07:36:19.674Z,28.79
2022-08-01T07:38:48.737Z,28.75
2022-08-01T07:41:17.458Z,28.75
2022-08-01T07:43:56.092Z,28.81
2022-08-01T07:46:26.756Z,28.91
2022-08-01T07:48:55.304Z,28.81
2022-08-01T07:51:23.857Z,28.78
2022-08-01T07:53:52.554Z,28.79
2022-08-01T07:56:21.129Z,28.79
2022-08-01T07:58:49.631Z,28.84
2022-08-01T08:01:19.209Z,28.86
2022-08-01T08:03:47.781Z,28.75
2022-08-01T08:06:16.297Z,28.67
2022-08-01T08:08:45.066Z,28.74
2022-08-01T08:11:13.606Z,28.79
2022-08-01T08:13:42.139Z,28.84
2022-08-01T08:16:12.157Z,28.93
2022-08-01T08:18:40.657Z,28.97
2022-08-01T08:21:09.280Z,29.02
2022-08-01T08:23:56.758Z,29.10
2022-08-01T08:26:26.677Z,29.16
2022-08-01T08:28:57.629Z,29.20
2022-08-01T08:31:51.819Z,29.22
2022-08-01T08:34:15.077Z,29.20
2022-08-01T08:36:47.849Z,29.21
2022-08-01T08:39:19.886Z,29.17
2022-08-01T08:41:49.502Z,29.13
2022-08-01T08:44:19.437Z,29.25
2022-08-01T08:46:52.617Z,29.25
2022-08-01T08:49:26.857Z,29.28
2022-08-01T08:51:58.297Z,29.34
2022-08-01T08:54:27.719Z,29.36
2022-08-01T08:57:01.289Z,29.32
2022-08-01T08:59:30.411Z,29.42
2022-08-01T09:01:59.929Z,29.31
2022-08-01T09:04:28.437Z,29.41
2022-08-01T09:06:57.220Z,29.40
2022-08-01T09:09:25.790Z,29.41
2022-08-01T09:11:57.709Z,29.41
2022-08-01T09:14:37.017Z,29.41
2022-08-01T09:17:14.045Z,29.48
2022-08-01T09:19:54.580Z,29.71
2022-08-01T09:22:25.702Z,29.61
2022-08-01T09:25:06.695Z,29.58
2022-08-01T09:27:35.994Z,29.64
2022-08-01T09:30:23.632Z,29.62
2022-08-01T09:33:11.058Z,29.63
2022-08-01T09:35:46.793Z,29.65
2022-08-01T09:38:18.507Z,29.72
2022-08-01T09:40:51.742Z,29.74
2022-08-01T09:43:21.918Z,29.75
2022-08-01T09:45:53.443Z,29.68
2022-08-01T09:48:28.611Z,29.73
2022-08-01T09:51:03.839Z,29.71
2022-08-01T09:53:52.049Z,29.73
2022-08-01T09:56:23.274Z,29.71
2022-08-01T09:59:02.056Z,29.72
2022-08-01T10:01:45.500Z,29.79
2022-08-01T10:04:21.603Z,29.83
2022-08-01T10:06:55.515Z,29.89
2022-08-01T10:09:40.790Z,29.87
2022-08-01T10:12:15.125Z,29.81
2022-08-01T10:14:50.373Z,29.82
2022-08-01T10:17:22.762Z,29.81
2022-08-01T10:19:51.781Z,29.85
2022-08-01T10:22:21.298Z,29.91
2022-08-01T10:24:51.625Z,29.87
2022-08-01T10:27:24.709Z,29.88
2022-08-01T10:30:19.872Z,29.96
2022-08-01T10:32:55.894Z,29.94
2022-08-01T10:35:47.149Z,29.95
2022-08-01T10:38:13.919Z,29.94
2022-08-01T10:40:46.126Z,29.96
2022-08-01T10:43:21.889Z,30.04
2022-08-01T10:45:51.572Z,30.11
2022-08-01T10:48:29.680Z,30.20
2022-08-01T10:51:03.089Z,30.16
2022-08-01T10:53:42.739Z,30.15
2022-08-01T10:56:12.854Z,30.18
2022-08-01T10:58:44.894Z,30.21
2022-08-01T11:01:28.163Z,30.27
2022-08-01T11:04:05.806Z,30.35
2022-08-01T11:06:44.558Z,30.35
2022-08-01T11:09:36.993Z,30.27
2022-08-01T11:12:13.224Z,30.29
2022-08-01T11:15:03.044Z,30.28
2022-08-01T11:17:38.109Z,30.33
2022-08-01T11:20:10.652Z,30.33
2022-08-01T11:23:06.953Z,30.31
2022-08-01T11:26:06.247Z,30.25
2022-08-01T11:28:33.310Z,30.24
2022-08-01T11:31:11.219Z,30.41
2022-08-01T11:33:45.889Z,30.57
2022-08-01T11:36:17.112Z,30.50
2022-08-01T11:38:58.402Z,30.69
2022-08-01T11:41:38.184Z,30.75
2022-08-01T11:44:17.071Z,30.70
2022-08-01T11:47:11.639Z,30.63
2022-08-01T11:49:49.889Z,30.63
2022-08-01T11:52:34.602Z,30.71
2022-08-01T11:55:03.394Z,30.78
2022-08-01T11:57:39.211Z,30.73
2022-08-01T12:00:17.719Z,30.73
2022-08-01T12:02:48.069Z,30.76
2022-08-01T12:05:24.538Z,30.75
2022-08-01T12:07:54.562Z,30.76
2022-08-01T12:10:25.977Z,30.78
2022-08-01T12:12:59.048Z,30.94
2022-08-01T12:15:35.226Z,30.96
2022-08-01T12:18:06.567Z,30.95
2022-08-01T12:20:42.821Z,30.84
2022-08-01T12:23:23.253Z,30.92
2022-08-01T12:25:54.941Z,30.92
2022-08-01T12:28:24.037Z,31.02
2022-08-01T12:30:52.987Z,31.17
2022-08-01T12:33:22.238Z,31.06
2022-08-01T12:35:50.896Z,31.20
2022-08-01T12:38:23.822Z,31.38
2022-08-01T12:40:53.575Z,31.31
2022-08-01T12:43:28.094Z,31.26
2022-08-01T12:46:00.631Z,31.29
2022-08-01T12:48:29.616Z,31.32
2022-08-01T12:50:59.043Z,31.25
2022-08-01T12:53:40.593Z,31.26
2022-08-01T12:56:11.885Z,31.24
2022-08-01T12:58:41.135Z,31.23
2022-08-01T13:01:12.077Z,31.34
2022-08-01T13:03:41.530Z,31.30
2022-08-01T13:06:17.845Z,31.29
2022-08-01T13:08:47.185Z,31.34
2022-08-01T13:11:17.673Z,31.36
2022-08-01T13:13:53.879Z,31.40
2022-08-01T13:16:43.402Z,31.43
2022-08-01T13:19:16.198Z,31.43
2022-08-01T13:21:59.019Z,31.40
2022-08-01T13:24:31.071Z,31.43
2022-08-01T13:27:02.278Z,31.40
2022-08-01T13:29:33.878Z,31.49
2022-08-01T13:32:28.562Z,31.50
2022-08-01T13:35:07.027Z,31.51
2022-08-01T13:37:41.839Z,31.50
2022-08-01T13:40:11.747Z,31.60
2022-08-01T13:42:40.480Z,31.62
2022-08-01T13:45:13.766Z,31.56
2022-08-01T13:48:03.578Z,31.52
2022-08-01T13:50:34.426Z,31.60
2022-08-01T13:53:03.897Z,31.65
2022-08-01T13:55:35.295Z,31.67
2022-08-01T13:58:04.240Z,31.60
2022-08-01T14:00:33.252Z,31.62
2022-08-01T14:03:01.642Z,31.64
2022-08-01T14:05:30.128Z,31.84
2022-08-01T14:07:58.747Z,31.77
2022-08-01T14:10:27.099Z,31.67
2022-08-01T14:12:58.766Z,31.61
2022-08-01T14:15:36.548Z,31.72
2022-08-01T14:18:09.294Z,31.73
2022-08-01T14:20:39.544Z,31.70
2022-08-01T14:23:09.384Z,31.74
2022-08-01T14:26:00.600Z,31.76
2022-08-01T14:28:31.441Z,31.79
2022-08-01T14:31:00.339Z,31.79
2022-08-01T14:33:28.892Z,31.88
2022-08-01T14:36:05.946Z,31.81
2022-08-01T14:38:46.628Z,31.88
2022-08-01T14:41:16.434Z,31.85
2022-08-01T14:43:44.973Z,31.81
2022-08-01T14:46:13.875Z,31.81
2022-08-01T14:48:42.674Z,31.88
2022-08-01T14:51:11.070Z,31.90
2022-08-01T14:53:44.860Z,31.92
2022-08-01T14:56:15.851Z,31.89
2022-08-01T14:58:44.252Z,31.91
2022-08-01T15:01:12.755Z,31.82
2022-08-01T15:03:41.968Z,31.95
2022-08-01T15:06:12.560Z,32.01
2022-08-01T15:08:41.412Z,32.04
2022-08-01T15:11:10.379Z,32.12
2022-08-01T15:13:42.396Z,32.05
2022-08-01T15:16:12.226Z,31.99
2022-08-01T15:18:40.719Z,32.04
2022-08-01T15:21:11.841Z,31.99
2022-08-01T15:23:49.536Z,31.73
2022-08-01T15:26:18.037Z,31.84
2022-08-01T15:28:46.452Z,31.87
2022-08-01T15:31:15.031Z,31.75
2022-08-01T15:33:43.368Z,31.93
2022-08-01T15:36:15.236Z,32.04
2022-08-01T15:38:44.263Z,32.01
2022-08-01T15:41:12.697Z,32.03
2022-08-01T15:43:44.216Z,32.10
2022-08-01T15:46:13.632Z,32.20
2022-08-01T15:48:42.242Z,32.14
2022-08-01T15:51:10.724Z,32.19
2022-08-01T15:53:40.377Z,32.19
2022-08-01T15:56:08.820Z,32.17
2022-08-01T15:58:37.172Z,32.10
2022-08-01T16:01:06.366Z,32.10
2022-08-01T16:03:35.074Z,32.17
2022-08-01T16:06:03.518Z,32.21
2022-08-01T16:08:32.103Z,32.25
2022-08-01T16:11:00.523Z,32.31
2022-08-01T16:13:28.899Z,32.29
2022-08-01T16:15:59.472Z,32.27
2022-08-01T16:18:27.894Z,32.25
2022-08-01T16:20:57.604Z,32.17
2022-08-01T16:23:26.252Z,32.15
2022-08-01T16:25:55.051Z,32.08
2022-08-01T16:28:23.798Z,32.17
2022-08-01T16:31:10.848Z,32.21
2022-08-01T16:33:53.412Z,32.26
2022-08-01T16:36:24.790Z,32.28
2022-08-01T16:38:53.556Z,32.33
2022-08-01T16:41:22.144Z,32.26
2022-08-01T16:43:53.549Z,32.31
2022-08-01T16:46:27.073Z,32.27
2022-08-01T16:48:55.821Z,32.31
2022-08-01T16:51:24.842Z,32.33
2022-08-01T16:53:53.378Z,32.28
2022-08-01T16:56:22.466Z,32.27
2022-08-01T16:58:50.818Z,32.29
2022-08-01T17:01:58.757Z,32.27
2022-08-01T17:04:09.551Z,32.29
2022-08-01T17:06:38.068Z,32.24
2022-08-01T17:09:06.387Z,32.25
2022-08-01T17:11:34.993Z,32.28
2022-08-01T17:14:03.569Z,32.30
2022-08-01T17:16:32.068Z,32.39
2022-08-01T17:19:00.702Z,32.28
2022-08-01T17:21:29.101Z,32.31
2022-08-01T17:23:57.396Z,32.32
2022-08-01T17:26:26.242Z,32.30
2022-08-01T17:28:54.624Z,32.25
2022-08-01T17:31:23.083Z,32.27
2022-08-01T17:33:54.731Z,32.26
2022-08-01T17:36:23.699Z,32.31
2022-08-01T17:38:52.131Z,32.27
2022-08-01T17:41:20.747Z,32.23
2022-08-01T17:43:49.192Z,32.23
2022-08-01T17:46:18.118Z,32.21
2022-08-01T17:48:46.907Z,32.19
2022-08-01T17:51:19.362Z,32.16
2022-08-01T17:53:56.190Z,32.16
2022-08-01T17:56:27.422Z,32.17
2022-08-01T17:58:56.265Z,32.20
2022-08-01T18:01:27.022Z,32.17
2022-08-01T18:03:57.407Z,32.15
2022-08-01T18:06:27.031Z,32.14
2022-08-01T18:08:56.569Z,32.07
2022-08-01T18:11:28.697Z,32.11
2022-08-01T18:14:07.512Z,32.05
2022-08-01T18:16:36.148Z,32.05
2022-08-01T18:19:05.777Z,32.02
2022-08-01T18:21:37.617Z,32.01
2022-08-01T18:24:10.117Z,32.00
2022-08-01T18:26:38.487Z,31.99
2022-08-01T18:29:07.929Z,31.93
2022-08-01T18:31:36.907Z,31.90
2022-08-01T18:34:05.434Z,31.89
2022-08-01T18:36:34.447Z,31.85
2022-08-01T18:39:10.232Z,31.84
2022-08-01T18:41:39.578Z,31.85
2022-08-01T18:44:09.154Z,31.86
2022-08-01T18:46:39.047Z,31.83
2022-08-01T18:49:10.167Z,31.81
2022-08-01T18:51:44.230Z,31.84
2022-08-01T18:54:14.960Z,31.81
2022-08-01T18:56:44.892Z,31.80
2022-08-01T18:59:14.325Z,31.77
2022-08-01T19:01:43.066Z,31.75
2022-08-01T19:04:11.961Z,31.74
2022-08-01T19:06:40.668Z,31.74
2022-08-01T19:09:09.334Z,31.75
2022-08-01T19:11:38.117Z,31.72
2022-08-01T19:14:06.544Z,31.71
2022-08-01T19:16:35.112Z,31.68
2022-08-01T19:19:07.247Z,31.68
2022-08-01T19:21:40.305Z,31.67
2022-08-01T19:24:22.602Z,31.62
2022-08-01T19:27:05.148Z,31.58
2022-08-01T19:29:39.440Z,31.55
2022-08-01T19:32:10.590Z,31.58
2022-08-01T19:35:11.672Z,31.60
2022-08-01T19:37:46.065Z,31.60
2022-08-01T19:40:27.003Z,31.61
2022-08-01T19:42:57.671Z,31.59
2022-08-01T19:45:29.815Z,31.58
2022-08-01T19:47:58.520Z,31.55
2022-08-01T19:50:28.229Z,31.54
2022-08-01T19:52:59.122Z,31.54
2022-08-01T19:55:28.927Z,31.51
2022-08-01T19:58:24.543Z,31.51
2022-08-01T20:00:47.892Z,31.52
2022-08-01T20:03:18.926Z,31.50
2022-08-01T20:05:47.685Z,31.51
2022-08-01T20:08:16.359Z,31.49
2022-08-01T20:10:46.165Z,31.51
2022-08-01T20:13:15.041Z,31.51
2022-08-01T20:15:45.751Z,31.50
2022-08-01T20:18:14.632Z,31.51
2022-08-01T20:20:45.594Z,31.49
2022-08-01T20:23:18.325Z,31.49
2022-08-01T20:25:51.270Z,31.48
2022-08-01T20:28:27.006Z,31.50
2022-08-01T20:31:05.383Z,31.48
2022-08-01T20:33:39.048Z,31.44
2022-08-01T20:36:12.179Z,31.48
2022-08-01T20:38:56.422Z,31.45
2022-08-01T20:41:27.294Z,31.41
2022-08-01T20:43:57.646Z,31.41
2022-08-01T20:46:29.141Z,31.40
2022-08-01T20:48:59.301Z,31.40
2022-08-01T20:51:29.088Z,31.40
2022-08-01T20:53:58.096Z,31.39
2022-08-01T20:56:39.948Z,31.38
2022-08-01T20:59:54.578Z,31.37
2022-08-01T21:02:42.198Z,31.36
2022-08-01T21:05:12.008Z,31.35
2022-08-01T21:07:54.200Z,31.34
2022-08-01T21:10:26.277Z,31.36
2022-08-01T21:13:06.911Z,31.34
2022-08-01T21:15:38.932Z,31.32
2022-08-01T21:18:42.105Z,31.32
2022-08-01T21:21:19.837Z,31.35
2022-08-01T21:24:04.121Z,31.35
2022-08-01T21:26:35.812Z,31.35
2022-08-01T21:29:07.111Z,31.36
2022-08-01T21:31:41.031Z,31.35
2022-08-01T21:34:10.121Z,31.35
2022-08-01T21:36:39.205Z,31.35
2022-08-01T21:39:08.103Z,31.35
2022-08-01T21:41:56.312Z,31.36
2022-08-01T21:44:28.830Z,31.34
2022-08-01T21:47:00.461Z,31.33
2022-08-01T21:49:29.646Z,31.35
2022-08-01T21:52:08.772Z,31.35
2022-08-01T21:54:53.779Z,31.34
2022-08-01T21:57:56.271Z,31.34
2022-08-01T22:00:26.407Z,31.33
2022-08-01T22:03:19.596Z,31.33
2022-08-01T22:05:50.264Z,31.33
2022-08-01T22:08:36.038Z,31.33
2022-08-01T22:11:07.787Z,31.32
2022-08-01T22:13:36.771Z,31.32
2022-08-01T22:16:06.901Z,31.35
2022-08-01T22:18:36.250Z,31.34
2022-08-01T22:21:05.019Z,31.34
2022-08-01T22:23:37.389Z,31.34
2022-08-01T22:26:08.479Z,31.33
2022-08-01T22:28:38.929Z,31.34
2022-08-01T22:31:07.633Z,31.34
2022-08-01T22:33:39.861Z,31.32
2022-08-01T22:36:08.861Z,31.32
2022-08-01T22:38:37.599Z,31.31
2022-08-01T22:41:09.732Z,31.34
2022-08-01T22:43:57.228Z,31.32
2022-08-01T22:46:32.950Z,31.33
2022-08-01T22:49:27.008Z,31.32
2022-08-01T22:52:14.108Z,31.28
2022-08-01T22:54:47.441Z,31.29
2022-08-01T22:57:36.531Z,31.26
2022-08-01T23:00:10.139Z,31.25
2022-08-01T23:02:46.546Z,31.27
2022-08-01T23:05:23.911Z,31.28
2022-08-01T23:07:58.639Z,31.27
2022-08-01T23:10:27.621Z,31.25
2022-08-01T23:12:56.541Z,31.26
2022-08-01T23:15:25.806Z,31.27
2022-08-01T23:17:54.888Z,31.28
2022-08-01T23:20:23.848Z,31.28
2022-08-01T23:22:52.631Z,31.29
2022-08-01T23:25:21.607Z,31.29
2022-08-01T23:27:51.403Z,31.29
2022-08-01T23:30:35.558Z,31.30
2022-08-01T23:33:04.457Z,31.27
2022-08-01T23:35:38.726Z,31.31
2022-08-01T23:38:10.419Z,31.33
2022-08-01T23:40:39.092Z,31.34
2022-08-01T23:43:14.642Z,31.32
2022-08-01T23:46:02.102Z,31.33
2022-08-01T23:48:37.720Z,31.29
2022-08-01T23:51:07.686Z,31.28
2022-08-01T23:53:38.829Z,31.32
2022-08-01T23:56:07.946Z,31.28
2022-08-01T23:58:36.687Z,31.30
